Aeroporto :
LOGIN :

Iscrizione | Disclaimer

   EN    FR    IT 

 










Sommario :    VFR   VFR Marginale   IFR   IFR Intensivo   IFR Molto Intensivo
Visibilità : 
Base nubi : 
>= 8 km
>= 3000ft
5 / 8 km
1000 / 3000 ft
1500m / 5 km
500 / 1000 ft
800 / 1500m
200 / 500 ft
< 800m
< 200 ft
Simboli :   Temporali  Nebbia  Neve Forte  Precipitazioni Forti  Vento > 20 kt
SIGMETs :   Varie  Temporali  Ghiacco  Turbolenza  Onda orograficha  Ceneri Vulcaniche






- Altitudine del aeroporto : 699 ft
- Codice IATA : PAD


EDLP - Paderborn Lippstadt

ULTIMO METAR :
  • 140550Z VRB01KT CAVOK 13/11 Q1014

METARs OBSOLETI :
  • 140520Z VRB02KT 9999 SCT017 14/12 Q1014
  • 140450Z VRB02KT 9999 SCT017 14/13 Q1014
  • 140420Z 24003KT 220V280 9999 FEW016 SCT027 15/13 Q1014
  • 140350Z 24003KT 180V300 9999 FEW016 SCT029 15/13 Q1014
  • 140320Z 25004KT 220V310 9999 FEW010 16/14 Q1014

TAF TAF EDLP
Valido dal 14 a 06 ore il 15 a 06 ore UTC


140500Z 1406/1506 VRB03KT CAVOK
BECMG 1408/1411 15007KT



MetMap, La meteo Aeronautica in un colpo d'occhio ! - Copyright ORBIFLY Dicembre 2007 - Disclaimer

ORBIFLY MET'MAP TEAM :

Programmazione e sviluppo : Alexandra Zaïnal
Concezione e sviluppo : Baudouin d'Aumeries
Co-Programmazione e sviluppo : Marc-Olivier Méhu
Supporto tecnico e logistico : Manuel Goepfert
Aiuto per la traduzione : Arnaldo La Scala

Contatto : metmap@orbifly.com




FONTI E CREDITI :

   NOAA